TimePST,TemperatureF,Dew PointF,Humidity,Sea Level PressureIn,VisibilityMPH,Wind Direction,Wind SpeedMPH,Gust SpeedMPH,PrecipitationIn,Events,Conditions,WindDirDegrees,DateUTC
12:58 AM,30.6,30.4,99,30.39,10.0,Calm,Calm,-,N/A,,Overcast,0,2013-01-20 08:58:00
1:22 AM,32.0,32.0,100,30.37,10.0,NNW,4.6,-,N/A,,Light Freezing Drizzle,340,2013-01-20 09:22:00
1:58 AM,30.9,30.7,99,30.40,10.0,NNW,1.2,-,0.00,,Light Freezing Drizzle,340,2013-01-20 09:58:00
2:03 AM,32.0,32.0,100,30.38,10.0,North,1.2,-,N/A,,Overcast,350,2013-01-20 10:03:00
2:58 AM,30.7,30.6,99,30.38,10.0,NNW,1.2,-,0.00,,Overcast,340,2013-01-20 10:58:00
3:58 AM,31.5,31.3,99,30.37,10.0,North,1.2,-,N/A,,Overcast,350,2013-01-20 11:58:00
4:38 AM,32.0,32.0,100,30.36,10.0,NNW,3.5,-,N/A,,Light Freezing Drizzle,340,2013-01-20 12:38:00
4:58 AM,31.6,31.5,99,30.36,10.0,NNW,2.3,-,0.00,,Light Freezing Drizzle,340,2013-01-20 12:58:00
5:41 AM,32.0,32.0,100,30.36,10.0,Calm,Calm,-,N/A,,Overcast,0,2013-01-20 13:41:00
5:58 AM,32.7,32.5,99,30.35,10.0,North,-9999.0,-,0.00,,Overcast,0,2013-01-20 13:58:00
6:58 AM,33.6,33.4,99,30.35,10.0,Calm,Calm,-,N/A,,Overcast,0,2013-01-20 14:58:00
7:10 AM,32.0,32.0,100,30.35,0.5,North,-9999.0,-,N/A,Fog,Fog,0,2013-01-20 15:10:00
7:14 AM,-9999,-9999,N/A,30.35,0.5,NNW,2.3,-,N/A,Fog,Fog,340,2013-01-20 15:14:00
7:18 AM,32.0,32.0,100,30.35,10.0,NNW,2.3,-,N/A,,Overcast,340,2013-01-20 15:18:00
7:36 AM,32.0,32.0,100,30.36,0.5,NNW,2.3,-,N/A,Fog,Fog,340,2013-01-20 15:36:00
7:38 AM,32.0,32.0,100,30.36,10.0,Calm,Calm,-,N/A,,Overcast,0,2013-01-20 15:38:00
7:47 AM,32.0,32.0,100,30.35,0.5,NNW,3.5,-,N/A,Fog,Fog,340,2013-01-20 15:47:00
7:53 AM,32.0,32.0,100,30.36,10.0,NNW,2.3,-,N/A,,Overcast,340,2013-01-20 15:53:00
7:58 AM,32.5,32.4,99,30.36,10.0,NNW,1.2,-,N/A,,Overcast,340,2013-01-20 15:58:00
7:59 AM,32.0,32.0,100,30.36,0.2,NNW,3.5,-,N/A,Fog,Fog,340,2013-01-20 15:59:00
8:03 AM,32.0,32.0,100,30.36,10.0,NNW,2.3,-,N/A,,Overcast,340,2013-01-20 16:03:00
8:11 AM,32.0,32.0,100,30.36,0.2,NNW,3.5,-,N/A,Fog,Fog,340,2013-01-20 16:11:00
8:13 AM,32.0,32.0,100,30.36,10.0,NNW,3.5,-,N/A,,Overcast,340,2013-01-20 16:13:00
8:18 AM,32.0,32.0,100,30.36,0.5,NNW,3.5,-,N/A,Fog,Fog,340,2013-01-20 16:18:00
8:23 AM,32.0,32.0,100,30.36,10.0,NNW,3.5,-,N/A,,Overcast,340,2013-01-20 16:23:00
8:27 AM,32.0,32.0,100,30.36,0.5,NNW,2.3,-,N/A,Fog,Fog,340,2013-01-20 16:27:00
8:28 AM,32.0,32.0,100,30.36,10.0,NNW,3.5,-,N/A,,Overcast,340,2013-01-20 16:28:00
8:32 AM,32.0,32.0,100,30.37,0.2,NNW,2.3,-,N/A,Fog,Fog,340,2013-01-20 16:32:00
9:03 AM,32.0,32.0,100,30.37,0.2,NNW,3.5,-,N/A,Fog,Fog,340,2013-01-20 17:03:00
10:01 AM,32.0,32.0,100,30.38,0.2,NNW,2.3,-,N/A,Fog,Fog,340,2013-01-20 18:01:00
10:03 AM,32.0,32.0,100,30.38,0.2,North,1.2,-,N/A,Fog,Fog,360,2013-01-20 18:03:00
11:06 AM,32.0,32.0,100,30.40,0.2,NNW,3.5,-,N/A,Fog,Fog,340,2013-01-20 19:06:00
12:00 PM,33.8,33.8,100,30.36,1.0,NNW,4.6,-,N/A,,Overcast,340,2013-01-20 20:00:00
1:01 PM,33.8,33.8,100,30.36,2.0,NNW,4.6,-,N/A,,Overcast,340,2013-01-20 21:01:00
1:50 PM,35.6,35.6,100,30.33,3.0,North,2.3,-,N/A,,Overcast,350,2013-01-20 21:50:00
2:04 PM,35.6,35.6,100,30.32,3.0,Calm,Calm,-,N/A,,Overcast,0,2013-01-20 22:04:00
2:23 PM,35.6,35.6,100,30.32,3.0,Calm,Calm,-,N/A,,Overcast,0,2013-01-20 22:23:00
2:55 PM,35.6,35.6,100,30.32,3.0,Calm,Calm,-,N/A,,Overcast,0,2013-01-20 22:55:00
3:31 PM,35.6,35.6,100,30.29,2.0,Calm,Calm,-,N/A,,Overcast,0,2013-01-20 23:31:00
3:55 PM,36.1,36.0,99,30.31,2.0,Calm,Calm,-,N/A,,Overcast,0,2013-01-20 23:55:00
4:55 PM,35.8,35.6,99,30.30,2.0,NNW,2.3,-,N/A,,Overcast,340,2013-01-21 00:55:00
5:40 PM,35.6,35.6,100,30.30,1.5,Calm,Calm,-,N/A,,Overcast,0,2013-01-21 01:40:00
5:55 PM,35.1,34.9,99,30.29,1.5,North,1.2,-,N/A,,Overcast,360,2013-01-21 01:55:00
6:13 PM,35.6,33.8,93,30.29,1.0,Calm,Calm,-,N/A,,Overcast,0,2013-01-21 02:13:00
6:55 PM,35.1,34.9,99,30.27,0.8,Calm,Calm,-,N/A,,Overcast,0,2013-01-21 02:55:00
7:16 PM,33.8,33.8,100,30.27,0.5,Calm,Calm,-,N/A,Fog,Fog,0,2013-01-21 03:16:00
7:55 PM,33.8,33.6,99,30.28,0.5,Calm,Calm,-,N/A,Fog,Fog,0,2013-01-21 03:55:00
8:55 PM,33.6,33.4,99,30.28,0.2,NNW,2.3,-,N/A,Fog,Fog,340,2013-01-21 04:55:00
9:55 PM,33.3,33.1,99,30.28,0.2,NNW,3.5,-,N/A,Fog,Fog,340,2013-01-21 05:55:00
10:55 PM,33.1,32.9,99,30.29,0.2,NNW,3.5,-,N/A,Fog,Fog,340,2013-01-21 06:55:00
10:56 PM,32.0,32.0,100,30.27,10.0,NNW,4.6,-,N/A,,Overcast,340,2013-01-21 06:56:00
11:58 PM,32.7,32.5,99,30.28,10.0,NNW,3.5,-,N/A,,Overcast,340,2013-01-21 07:58:00